createdAt,value
2024-04-24T00:00:57.945Z,1.45
2024-04-24T00:03:24.740Z,1.98
2024-04-24T00:05:51.414Z,2.95
2024-04-24T00:08:18.042Z,2.35
2024-04-24T00:10:44.777Z,2.78
2024-04-24T00:13:12.158Z,2.25
2024-04-24T00:15:38.746Z,1.02
2024-04-24T00:18:05.597Z,2.08
2024-04-24T00:20:32.200Z,1.50
2024-04-24T00:22:58.839Z,2.65
2024-04-24T00:25:25.466Z,1.80
2024-04-24T00:27:57.245Z,2.63
2024-04-24T00:30:24.500Z,2.20
2024-04-24T00:32:51.158Z,0.88
2024-04-24T00:35:17.859Z,2.38
2024-04-24T00:37:44.531Z,2.38
2024-04-24T00:40:11.262Z,1.48
2024-04-24T00:42:37.862Z,1.80
2024-04-24T00:45:04.892Z,1.90
2024-04-24T00:47:32.604Z,1.45
2024-04-24T00:50:01.817Z,1.38
2024-04-24T00:52:29.739Z,2.83
2024-04-24T00:54:56.384Z,1.33
2024-04-24T00:57:23.172Z,2.25
2024-04-24T00:59:49.821Z,1.95
2024-04-24T01:02:16.682Z,1.75
2024-04-24T01:04:43.519Z,2.70
2024-04-24T01:07:10.185Z,1.33
2024-04-24T01:09:36.825Z,1.75
2024-04-24T01:12:03.683Z,1.27
2024-04-24T01:14:30.437Z,1.58
2024-04-24T01:16:58.562Z,1.88
2024-04-24T01:19:41.011Z,2.85
2024-04-24T01:22:32.673Z,1.65
2024-04-24T01:25:06.791Z,2.10
2024-04-24T01:27:33.513Z,2.40
2024-04-24T01:30:00.521Z,1.20
2024-04-24T01:32:27.277Z,1.13
2024-04-24T01:34:53.945Z,0.63
2024-04-24T01:37:20.527Z,1.95
2024-04-24T01:39:47.119Z,1.65
2024-04-24T01:42:14.683Z,3.00
2024-04-24T01:44:44.013Z,1.88
2024-04-24T01:47:10.862Z,1.83
2024-04-24T01:49:37.615Z,1.38
2024-04-24T01:52:04.242Z,1.88
2024-04-24T01:54:30.841Z,1.25
2024-04-24T01:56:57.390Z,1.83
2024-04-24T01:59:24.038Z,1.73
2024-04-24T02:01:50.831Z,2.05
2024-04-24T02:04:17.448Z,2.85
2024-04-24T02:06:46.924Z,1.52
2024-04-24T02:09:13.514Z,1.38
2024-04-24T02:11:40.330Z,1.42
2024-04-24T02:14:07.183Z,1.40
2024-04-24T02:16:33.974Z,0.70
2024-04-24T02:19:00.992Z,1.35
2024-04-24T02:21:27.630Z,1.15
2024-04-24T02:23:55.318Z,1.63
2024-04-24T02:26:29.530Z,1.80
2024-04-24T02:28:56.310Z,1.80
2024-04-24T02:31:25.785Z,1.92
2024-04-24T02:33:52.590Z,2.72
2024-04-24T02:36:19.251Z,1.02
2024-04-24T02:38:45.839Z,1.58
2024-04-24T02:41:12.458Z,1.95
2024-04-24T02:43:39.284Z,2.75
2024-04-24T02:46:05.859Z,1.48
2024-04-24T02:48:32.547Z,2.25
2024-04-24T02:50:59.202Z,2.40
2024-04-24T02:53:25.800Z,1.40
2024-04-24T02:55:52.418Z,1.15
2024-04-24T02:58:19.023Z,1.48
2024-04-24T03:00:45.780Z,2.67
2024-04-24T03:03:12.625Z,1.48
2024-04-24T03:05:39.292Z,2.05
2024-04-24T03:08:06.171Z,1.23
2024-04-24T03:10:32.769Z,1.08
2024-04-24T03:12:59.379Z,1.88
2024-04-24T03:15:25.957Z,1.70
2024-04-24T03:17:52.681Z,1.20
2024-04-24T03:20:19.433Z,2.00
2024-04-24T03:22:46.090Z,1.75
2024-04-24T03:25:12.836Z,1.70
2024-04-24T03:27:39.454Z,1.50
2024-04-24T03:30:06.713Z,5.07
2024-04-24T03:32:33.425Z,1.60
2024-04-24T03:35:00.165Z,1.40
2024-04-24T03:37:27.255Z,1.75
2024-04-24T03:39:53.833Z,1.42
2024-04-24T03:42:20.457Z,1.10
2024-04-24T03:44:47.040Z,1.40
2024-04-24T03:47:13.814Z,1.40
2024-04-24T03:49:40.484Z,1.15
2024-04-24T03:52:07.079Z,1.42
2024-04-24T03:54:33.647Z,1.33
2024-04-24T03:57:00.264Z,1.83
2024-04-24T03:59:26.972Z,1.77
2024-04-24T04:01:53.611Z,1.65
2024-04-24T04:04:20.385Z,1.13
2024-04-24T04:06:46.988Z,1.65
2024-04-24T04:09:13.613Z,2.28
2024-04-24T04:11:40.409Z,2.25
2024-04-24T04:14:07.088Z,1.45
2024-04-24T04:16:33.717Z,3.53
2024-04-24T04:19:00.483Z,2.05
2024-04-24T04:21:27.040Z,1.55
2024-04-24T04:23:53.723Z,1.02
2024-04-24T04:26:20.407Z,2.85
2024-04-24T04:28:47.107Z,1.63
2024-04-24T04:31:14.790Z,1.60
2024-04-24T04:33:41.529Z,1.98
2024-04-24T04:36:08.760Z,1.48
2024-04-24T04:38:35.403Z,1.25
2024-04-24T04:41:02.075Z,1.15
2024-04-24T04:43:28.678Z,1.52
2024-04-24T04:45:55.597Z,1.48
2024-04-24T04:48:22.351Z,1.80
2024-04-24T04:50:49.041Z,2.60
2024-04-24T04:53:15.740Z,1.63
2024-04-24T04:55:42.506Z,1.40
2024-04-24T04:58:09.377Z,1.92
2024-04-24T05:00:35.977Z,3.20
2024-04-24T05:03:02.716Z,1.75
2024-04-24T05:05:29.395Z,1.55
2024-04-24T05:07:56.042Z,1.85
2024-04-24T05:10:22.675Z,2.28
2024-04-24T05:12:49.456Z,1.45
2024-04-24T05:15:16.146Z,3.45
2024-04-24T05:17:42.804Z,2.78
2024-04-24T05:20:09.761Z,1.73
2024-04-24T05:22:48.334Z,1.67
2024-04-24T05:25:17.714Z,1.75
2024-04-24T05:28:03.472Z,2.45
2024-04-24T05:30:31.038Z,3.45
2024-04-24T05:32:58.003Z,5.28
2024-04-24T05:35:24.650Z,1.42
2024-04-24T05:37:53.100Z,5.30
2024-04-24T05:40:20.818Z,2.17
2024-04-24T05:42:47.638Z,2.10
2024-04-24T05:45:14.683Z,4.97
2024-04-24T05:47:41.732Z,2.42
2024-04-24T05:50:08.668Z,2.10
2024-04-24T05:52:35.439Z,1.35
2024-04-24T05:55:03.078Z,2.42
2024-04-24T05:57:30.557Z,2.55
2024-04-24T05:59:57.447Z,2.03
2024-04-24T06:02:24.320Z,2.28
2024-04-24T06:04:52.148Z,3.97
2024-04-24T06:07:19.014Z,3.30
2024-04-24T06:09:45.832Z,3.17
2024-04-24T06:12:12.598Z,2.70
2024-04-24T06:14:39.244Z,2.72
2024-04-24T06:17:06.069Z,1.35
2024-04-24T06:19:32.689Z,13.07
2024-04-24T06:21:59.873Z,4.22
2024-04-24T06:24:26.538Z,1.67
2024-04-24T06:26:53.257Z,2.67
2024-04-24T06:29:20.070Z,3.30
2024-04-24T06:31:46.850Z,2.60
2024-04-24T06:34:13.510Z,2.22
2024-04-24T06:36:40.105Z,3.85
2024-04-24T06:39:06.730Z,2.20
2024-04-24T06:41:36.376Z,3.42
2024-04-24T06:44:03.089Z,2.53
2024-04-24T06:46:30.846Z,2.63
2024-04-24T06:48:57.433Z,2.05
2024-04-24T06:51:24.372Z,7.93
2024-04-24T06:53:52.498Z,1.58
2024-04-24T06:56:19.222Z,3.08
2024-04-24T06:58:45.881Z,3.00
2024-04-24T07:01:12.675Z,2.33
2024-04-24T07:03:39.660Z,5.10
2024-04-24T07:06:06.614Z,4.60
2024-04-24T07:08:33.700Z,2.90
2024-04-24T07:11:00.435Z,2.97
2024-04-24T07:13:27.767Z,2.00
2024-04-24T07:15:54.450Z,2.60
2024-04-24T07:18:21.194Z,4.63
2024-04-24T07:20:47.959Z,3.85
2024-04-24T07:23:16.842Z,3.92
2024-04-24T07:25:46.641Z,2.75
2024-04-24T07:28:13.281Z,2.10
2024-04-24T07:30:39.862Z,3.45
2024-04-24T07:33:07.130Z,3.42
2024-04-24T07:35:33.813Z,4.45
2024-04-24T07:38:00.574Z,3.92
2024-04-24T07:40:27.236Z,2.75
2024-04-24T07:42:53.913Z,5.22
2024-04-24T07:45:20.739Z,2.63
2024-04-24T07:47:47.626Z,5.47
2024-04-24T07:50:14.495Z,4.50
2024-04-24T07:52:41.117Z,2.67
2024-04-24T07:55:07.685Z,3.55
2024-04-24T07:57:34.381Z,3.70
2024-04-24T08:00:01.024Z,4.72
2024-04-24T08:02:28.734Z,2.90
2024-04-24T08:04:55.629Z,3.30
2024-04-24T08:07:22.366Z,4.00
2024-04-24T08:09:49.127Z,2.55
2024-04-24T08:12:15.908Z,5.75
2024-04-24T08:14:42.778Z,3.38
2024-04-24T08:17:09.431Z,4.78
2024-04-24T08:19:38.957Z,2.75
2024-04-24T08:22:05.644Z,3.15
2024-04-24T08:24:32.275Z,1.92
2024-04-24T08:26:58.907Z,3.58
2024-04-24T08:29:30.843Z,3.72
2024-04-24T08:31:58.816Z,3.72
2024-04-24T08:34:26.955Z,4.63
2024-04-24T08:36:53.617Z,3.45
2024-04-24T08:39:20.329Z,4.53
2024-04-24T08:41:46.964Z,2.67
2024-04-24T08:44:14.424Z,2.58
2024-04-24T08:46:43.875Z,1.83
2024-04-24T08:49:14.269Z,2.83
2024-04-24T08:51:42.357Z,3.75
2024-04-24T08:54:13.515Z,4.57
2024-04-24T08:56:45.056Z,3.40
2024-04-24T08:59:20.747Z,4.32
2024-04-24T09:02:00.597Z,2.97
2024-04-24T09:04:29.037Z,2.60
2024-04-24T09:07:03.032Z,1.98
2024-04-24T09:09:30.394Z,2.25
2024-04-24T09:12:08.535Z,2.65
2024-04-24T09:14:35.558Z,2.03
2024-04-24T09:17:03.919Z,3.85
2024-04-24T09:19:30.703Z,2.17
2024-04-24T09:21:57.370Z,1.63
2024-04-24T09:24:24.040Z,2.53
2024-04-24T09:26:51.295Z,1.77
2024-04-24T09:29:18.854Z,3.13
2024-04-24T09:31:45.859Z,3.38
2024-04-24T09:34:12.588Z,1.65
2024-04-24T09:36:43.030Z,3.90
2024-04-24T09:39:14.896Z,2.83
2024-04-24T09:41:50.395Z,3.22
2024-04-24T09:44:19.970Z,3.47
2024-04-24T09:46:53.824Z,2.60
2024-04-24T09:49:22.063Z,1.65
2024-04-24T09:51:50.850Z,1.77
2024-04-24T09:54:19.035Z,3.33
2024-04-24T09:56:49.107Z,2.60
2024-04-24T09:59:17.037Z,2.40
2024-04-24T10:01:54.854Z,2.35
2024-04-24T10:04:29.699Z,5.22
2024-04-24T10:07:02.218Z,3.03
2024-04-24T10:09:34.057Z,2.75
2024-04-24T10:12:05.838Z,2.42
2024-04-24T10:14:39.972Z,3.90
2024-04-24T10:17:07.504Z,2.35
2024-04-24T10:19:37.442Z,2.05
2024-04-24T10:22:04.854Z,2.63
2024-04-24T10:24:34.066Z,2.05
2024-04-24T10:27:01.995Z,2.63
2024-04-24T10:29:30.532Z,2.50
2024-04-24T10:32:01.200Z,2.92
2024-04-24T10:34:29.104Z,1.63
2024-04-24T10:36:56.324Z,2.58
2024-04-24T10:39:22.937Z,4.00
2024-04-24T10:41:49.670Z,3.25
2024-04-24T10:44:16.888Z,2.85
2024-04-24T10:46:44.072Z,3.53
2024-04-24T10:49:10.782Z,2.10
2024-04-24T10:51:45.105Z,2.90
2024-04-24T10:54:11.661Z,2.22
2024-04-24T10:56:42.108Z,2.17
2024-04-24T10:59:08.998Z,2.22
2024-04-24T11:01:43.046Z,2.30
2024-04-24T11:04:18.263Z,2.97
2024-04-24T11:06:45.767Z,2.30
2024-04-24T11:09:12.474Z,1.58
2024-04-24T11:11:39.471Z,2.60
2024-04-24T11:14:10.420Z,4.57
2024-04-24T11:16:39.008Z,2.63
2024-04-24T11:19:05.714Z,3.03
2024-04-24T11:21:32.314Z,2.13
2024-04-24T11:23:59.547Z,2.33
2024-04-24T11:26:31.457Z,2.83
2024-04-24T11:29:06.363Z,4.00
2024-04-24T11:31:44.167Z,3.40
2024-04-24T11:34:12.566Z,4.32
2024-04-24T11:36:40.326Z,3.45
2024-04-24T11:39:07.712Z,2.50
2024-04-24T11:41:37.739Z,2.65
2024-04-24T11:44:05.863Z,4.68
2024-04-24T11:46:32.792Z,4.97
2024-04-24T11:49:02.205Z,5.70
2024-04-24T11:51:29.219Z,3.90
2024-04-24T11:53:56.694Z,6.85
2024-04-24T11:56:24.598Z,3.92
2024-04-24T11:58:51.495Z,6.40
2024-04-24T12:01:19.487Z,1.67
2024-04-24T12:03:47.840Z,5.65
2024-04-24T12:06:14.601Z,3.75
2024-04-24T12:08:42.303Z,5.15
2024-04-24T12:11:09.114Z,3.40
2024-04-24T12:13:36.124Z,2.80
2024-04-24T12:16:04.391Z,4.10
2024-04-24T12:18:32.122Z,3.85
2024-04-24T12:21:01.883Z,3.28
2024-04-24T12:23:31.674Z,4.90
2024-04-24T12:26:01.294Z,3.17
2024-04-24T12:28:27.904Z,4.65
2024-04-24T12:30:55.577Z,4.30
2024-04-24T12:33:23.125Z,2.35
2024-04-24T12:35:49.733Z,3.53
2024-04-24T12:38:16.369Z,7.20
2024-04-24T12:40:42.928Z,3.92
2024-04-24T12:43:09.486Z,3.72
2024-04-24T12:45:36.451Z,3.10
2024-04-24T12:48:03.424Z,3.47
2024-04-24T12:50:30.378Z,4.10
2024-04-24T12:52:57.110Z,3.20
2024-04-24T12:55:23.723Z,1.75
2024-04-24T12:57:50.479Z,3.38
2024-04-24T13:00:20.163Z,2.70
2024-04-24T13:02:47.662Z,2.67
2024-04-24T13:05:14.645Z,4.10
2024-04-24T13:07:41.252Z,4.25
2024-04-24T13:10:08.284Z,2.47
2024-04-24T13:12:36.621Z,3.85
2024-04-24T13:15:04.142Z,3.10
2024-04-24T13:17:30.881Z,3.50
2024-04-24T13:19:57.513Z,3.60
2024-04-24T13:22:24.238Z,2.38
2024-04-24T13:24:51.891Z,4.60
2024-04-24T13:27:18.524Z,3.55
2024-04-24T13:29:45.110Z,3.45
2024-04-24T13:32:11.776Z,2.55
2024-04-24T13:34:38.364Z,2.33
2024-04-24T13:37:04.931Z,4.57
2024-04-24T13:39:33.515Z,3.78
2024-04-24T13:42:00.252Z,3.08
2024-04-24T13:44:26.847Z,3.72
2024-04-24T13:46:53.758Z,1.92
2024-04-24T13:49:20.382Z,3.17
2024-04-24T13:51:47.027Z,2.70
2024-04-24T13:54:15.275Z,4.70
2024-04-24T13:56:43.060Z,3.05
2024-04-24T13:59:11.909Z,5.47
2024-04-24T14:01:38.630Z,2.15
2024-04-24T14:04:05.493Z,4.47
2024-04-24T14:06:32.186Z,4.30
2024-04-24T14:08:58.785Z,2.80
2024-04-24T14:11:26.190Z,4.40
2024-04-24T14:13:52.950Z,5.63
2024-04-24T14:16:20.879Z,2.67
2024-04-24T14:18:47.939Z,2.38
2024-04-24T14:21:18.547Z,6.90
2024-04-24T14:23:45.643Z,1.63
2024-04-24T14:26:12.286Z,3.78
2024-04-24T14:28:39.834Z,1.80
2024-04-24T14:31:06.484Z,3.70
2024-04-24T14:33:34.499Z,4.00
2024-04-24T14:36:01.117Z,2.40
2024-04-24T14:38:27.794Z,1.67
2024-04-24T14:40:57.136Z,2.22
2024-04-24T14:43:24.070Z,3.80
2024-04-24T14:45:50.739Z,3.65
2024-04-24T14:48:17.498Z,2.10
2024-04-24T14:50:46.025Z,4.43
2024-04-24T14:53:12.713Z,3.03
2024-04-24T14:55:42.186Z,2.88
2024-04-24T14:58:09.158Z,7.43
2024-04-24T15:00:35.784Z,6.22
2024-04-24T15:03:02.475Z,3.65
2024-04-24T15:05:29.166Z,3.70
2024-04-24T15:07:55.793Z,2.47
2024-04-24T15:10:22.686Z,1.70
2024-04-24T15:12:49.338Z,2.92
2024-04-24T15:15:15.967Z,3.65
2024-04-24T15:17:42.826Z,3.67
2024-04-24T15:20:09.624Z,3.85
2024-04-24T15:22:36.288Z,2.20
2024-04-24T15:25:02.917Z,4.40
2024-04-24T15:27:29.858Z,2.63
2024-04-24T15:29:56.403Z,2.63
2024-04-24T15:32:23.091Z,3.17
2024-04-24T15:34:51.183Z,4.75
2024-04-24T15:37:17.923Z,50.28
2024-04-24T15:39:44.469Z,198.82
2024-04-24T15:42:11.493Z,129.00
2024-04-24T15:44:38.172Z,41.65
2024-04-24T15:47:05.074Z,34.22
2024-04-24T15:49:31.740Z,40.72
2024-04-24T15:52:00.090Z,25.55
2024-04-24T15:54:26.803Z,21.52
2024-04-24T15:56:53.460Z,18.17
2024-04-24T15:59:20.082Z,12.23
2024-04-24T16:01:46.739Z,16.85
2024-04-24T16:04:13.379Z,18.02
2024-04-24T16:06:40.050Z,15.00
2024-04-24T16:09:06.649Z,12.00
2024-04-24T16:11:33.293Z,10.15
2024-04-24T16:14:01.637Z,15.57
2024-04-24T16:16:30.637Z,11.73
2024-04-24T16:18:57.507Z,11.05
2024-04-24T16:21:26.464Z,12.05
2024-04-24T16:23:53.035Z,11.10
2024-04-24T16:26:19.680Z,8.02
2024-04-24T16:28:46.336Z,7.95
2024-04-24T16:31:12.964Z,8.00
2024-04-24T16:33:39.649Z,17.00
2024-04-24T16:36:09.230Z,9.88
2024-04-24T16:38:36.006Z,9.02
2024-04-24T16:41:07.804Z,13.10
2024-04-24T16:43:34.842Z,12.10
2024-04-24T16:46:01.630Z,7.50
2024-04-24T16:48:28.691Z,8.75
2024-04-24T16:50:55.999Z,7.28
2024-04-24T16:53:22.641Z,8.32
2024-04-24T16:55:50.943Z,8.02
2024-04-24T16:58:17.553Z,6.78
2024-04-24T17:00:46.298Z,6.82
2024-04-24T17:03:13.066Z,6.65
2024-04-24T17:05:40.443Z,6.78
2024-04-24T17:08:07.585Z,6.07
2024-04-24T17:10:34.506Z,7.00
2024-04-24T17:13:01.118Z,6.57
2024-04-24T17:15:27.791Z,7.88
2024-04-24T17:17:54.561Z,5.15
2024-04-24T17:20:21.286Z,8.18
2024-04-24T17:22:49.299Z,5.90
2024-04-24T17:25:16.512Z,4.07
2024-04-24T17:27:43.149Z,6.57
2024-04-24T17:30:13.139Z,6.57
2024-04-24T17:32:40.638Z,7.90
2024-04-24T17:35:07.595Z,5.72
2024-04-24T17:37:34.538Z,6.88
2024-04-24T17:40:01.148Z,5.85
2024-04-24T17:42:27.784Z,2.67
2024-04-24T17:44:54.407Z,4.90
2024-04-24T17:47:24.243Z,4.30
2024-04-24T17:49:54.886Z,5.57
2024-04-24T17:52:22.150Z,6.30
2024-04-24T17:54:48.740Z,6.35
2024-04-24T17:57:15.318Z,4.03
2024-04-24T17:59:41.942Z,2.75
2024-04-24T18:02:08.588Z,2.78
2024-04-24T18:04:35.235Z,3.10
2024-04-24T18:07:01.872Z,3.92
2024-04-24T18:09:31.943Z,2.65
2024-04-24T18:11:59.384Z,3.95
2024-04-24T18:14:26.215Z,3.50
2024-04-24T18:16:53.449Z,3.85
2024-04-24T18:19:20.137Z,5.07
2024-04-24T18:21:46.796Z,5.45
2024-04-24T18:24:13.728Z,5.00
2024-04-24T18:26:41.212Z,3.22
2024-04-24T18:29:07.973Z,2.65
2024-04-24T18:31:34.638Z,3.88
2024-04-24T18:34:01.316Z,3.42
2024-04-24T18:36:27.973Z,4.35
2024-04-24T18:38:55.670Z,2.50
2024-04-24T18:41:22.485Z,2.70
2024-04-24T18:43:49.622Z,3.92
2024-04-24T18:46:17.274Z,3.63
2024-04-24T18:48:46.381Z,3.15
2024-04-24T18:51:13.271Z,2.67
2024-04-24T18:53:39.958Z,2.13
2024-04-24T18:56:07.909Z,2.47
2024-04-24T18:58:37.383Z,2.60
2024-04-24T19:01:04.196Z,3.40
2024-04-24T19:03:31.152Z,2.80
2024-04-24T19:05:57.872Z,2.22
2024-04-24T19:08:24.470Z,2.22
2024-04-24T19:10:51.113Z,2.60
2024-04-24T19:13:19.184Z,1.77
2024-04-24T19:15:45.857Z,2.28
2024-04-24T19:18:13.095Z,2.00
2024-04-24T19:20:42.109Z,2.13
2024-04-24T19:23:09.736Z,2.55
2024-04-24T19:25:36.885Z,2.10
2024-04-24T19:28:04.670Z,2.95
2024-04-24T19:30:31.819Z,2.83
2024-04-24T19:32:59.430Z,2.63
2024-04-24T19:35:26.186Z,1.65
2024-04-24T19:37:53.090Z,2.95
2024-04-24T19:40:21.132Z,2.67
2024-04-24T19:42:48.288Z,2.38
2024-04-24T19:45:14.988Z,2.28
2024-04-24T19:47:42.067Z,3.53
2024-04-24T19:50:09.007Z,2.47
2024-04-24T19:52:38.717Z,2.05
2024-04-24T19:55:07.248Z,1.63
2024-04-24T19:57:33.881Z,2.72
2024-04-24T20:00:00.664Z,3.45
2024-04-24T20:02:28.895Z,2.03
2024-04-24T20:04:55.769Z,1.58
2024-04-24T20:07:22.379Z,1.67
2024-04-24T20:09:50.113Z,1.77
2024-04-24T20:12:16.744Z,3.28
2024-04-24T20:14:43.607Z,1.95
2024-04-24T20:17:10.607Z,1.60
2024-04-24T20:19:37.259Z,1.13
2024-04-24T20:22:03.849Z,1.55
2024-04-24T20:24:33.315Z,1.30
2024-04-24T20:26:59.909Z,1.90
2024-04-24T20:29:26.542Z,1.05
2024-04-24T20:31:53.218Z,2.25
2024-04-24T20:34:19.794Z,2.00
2024-04-24T20:36:46.388Z,2.22
2024-04-24T20:39:13.005Z,1.85
2024-04-24T20:41:43.251Z,1.35
2024-04-24T20:44:09.918Z,1.05
2024-04-24T20:46:42.037Z,1.50
2024-04-24T20:49:09.542Z,2.28
2024-04-24T20:51:39.730Z,1.88
2024-04-24T20:54:10.268Z,2.17
2024-04-24T20:56:37.560Z,1.73
2024-04-24T20:59:07.318Z,2.83
2024-04-24T21:01:33.916Z,1.75
2024-04-24T21:04:00.476Z,1.40
2024-04-24T21:06:27.109Z,1.23
2024-04-24T21:08:53.757Z,3.00
2024-04-24T21:11:21.598Z,2.40
2024-04-24T21:13:48.823Z,1.42
2024-04-24T21:16:18.193Z,2.95
2024-04-24T21:18:44.966Z,1.13
2024-04-24T21:21:12.455Z,1.33
2024-04-24T21:23:39.324Z,2.35
2024-04-24T21:26:06.040Z,1.65
2024-04-24T21:28:39.018Z,2.50
2024-04-24T21:31:05.911Z,1.60
2024-04-24T21:33:33.408Z,1.52
2024-04-24T21:36:00.466Z,2.03
2024-04-24T21:38:32.343Z,2.13
2024-04-24T21:40:59.153Z,1.27
2024-04-24T21:43:27.032Z,1.63
2024-04-24T21:45:54.734Z,2.55
2024-04-24T21:48:21.512Z,2.35
2024-04-24T21:50:50.028Z,0.75
2024-04-24T21:53:17.225Z,1.08
2024-04-24T21:55:43.898Z,1.33
2024-04-24T21:58:10.521Z,0.95
2024-04-24T22:00:37.156Z,1.13
2024-04-24T22:03:04.759Z,1.20
2024-04-24T22:05:33.912Z,0.82
2024-04-24T22:08:00.563Z,2.28
2024-04-24T22:10:27.221Z,2.05
2024-04-24T22:12:53.893Z,1.08
2024-04-24T22:15:20.448Z,1.42
2024-04-24T22:17:47.177Z,2.15
2024-04-24T22:20:14.972Z,0.73
2024-04-24T22:22:42.264Z,1.42
2024-04-24T22:25:08.854Z,3.50
2024-04-24T22:27:35.489Z,1.25
2024-04-24T22:30:02.228Z,1.02
2024-04-24T22:32:28.958Z,1.40
2024-04-24T22:34:55.623Z,2.00
2024-04-24T22:37:22.266Z,1.20
2024-04-24T22:39:48.970Z,3.00
2024-04-24T22:42:15.535Z,1.98
2024-04-24T22:44:42.107Z,2.58
2024-04-24T22:47:08.702Z,2.58
2024-04-24T22:49:35.453Z,1.60
2024-04-24T22:52:02.124Z,1.58
2024-04-24T22:54:28.749Z,3.40
2024-04-24T22:56:55.536Z,2.38
2024-04-24T22:59:22.291Z,2.05
2024-04-24T23:01:51.893Z,2.88
2024-04-24T23:04:18.541Z,2.72
2024-04-24T23:06:45.185Z,1.25
2024-04-24T23:09:11.910Z,2.20
2024-04-24T23:11:38.554Z,1.58
2024-04-24T23:14:05.203Z,2.33
2024-04-24T23:16:31.968Z,2.30
2024-04-24T23:18:58.600Z,2.40
2024-04-24T23:21:25.200Z,2.17
2024-04-24T23:23:52.299Z,2.80
2024-04-24T23:26:20.789Z,4.15
2024-04-24T23:28:47.428Z,2.17
2024-04-24T23:31:17.195Z,1.98
2024-04-24T23:33:45.475Z,2.00
2024-04-24T23:36:12.200Z,5.22
2024-04-24T23:38:38.827Z,1.60
2024-04-24T23:41:05.669Z,4.43
2024-04-24T23:43:32.331Z,4.10
2024-04-24T23:46:00.900Z,3.17
2024-04-24T23:48:29.205Z,2.90
2024-04-24T23:50:56.301Z,4.70
2024-04-24T23:53:22.935Z,5.25
2024-04-24T23:55:49.530Z,4.63
2024-04-24T23:58:16.192Z,5.35
